sensor_id;sensor_type;location;lat;lon;timestamp;P1;durP1;ratioP1;P2;durP2;ratioP2
1220;SDS011;600;48.044;7.878;2022-07-23T00:00:25;7.00;;;6.60;;
1220;SDS011;600;48.044;7.878;2022-07-23T00:02:52;8.20;;;7.60;;
1220;SDS011;600;48.044;7.878;2022-07-23T00:05:19;8.20;;;7.50;;
1220;SDS011;600;48.044;7.878;2022-07-23T00:07:46;8.20;;;7.60;;
1220;SDS011;600;48.044;7.878;2022-07-23T00:10:12;7.53;;;6.93;;
1220;SDS011;600;48.044;7.878;2022-07-23T00:12:39;6.60;;;6.20;;
1220;SDS011;600;48.044;7.878;2022-07-23T00:15:08;7.60;;;7.00;;
1220;SDS011;600;48.044;7.878;2022-07-23T00:17:35;7.23;;;6.73;;
1220;SDS011;600;48.044;7.878;2022-07-23T00:20:02;6.60;;;6.20;;
1220;SDS011;600;48.044;7.878;2022-07-23T00:22:30;7.33;;;6.83;;
1220;SDS011;600;48.044;7.878;2022-07-23T00:24:56;7.80;;;7.20;;
1220;SDS011;600;48.044;7.878;2022-07-23T00:27:23;7.00;;;6.50;;
1220;SDS011;600;48.044;7.878;2022-07-23T00:29:50;6.77;;;6.37;;
1220;SDS011;600;48.044;7.878;2022-07-23T00:32:18;8.00;;;7.43;;
1220;SDS011;600;48.044;7.878;2022-07-23T00:34:45;7.47;;;6.87;;
1220;SDS011;600;48.044;7.878;2022-07-23T00:37:11;7.33;;;6.83;;
1220;SDS011;600;48.044;7.878;2022-07-23T00:39:38;7.77;;;7.17;;
1220;SDS011;600;48.044;7.878;2022-07-23T00:42:05;6.80;;;6.30;;
1220;SDS011;600;48.044;7.878;2022-07-23T00:44:32;7.67;;;7.17;;
1220;SDS011;600;48.044;7.878;2022-07-23T00:46:58;7.23;;;6.73;;
1220;SDS011;600;48.044;7.878;2022-07-23T00:49:27;6.87;;;6.37;;
1220;SDS011;600;48.044;7.878;2022-07-23T00:51:55;9.60;;;7.87;;
1220;SDS011;600;48.044;7.878;2022-07-23T00:54:23;8.17;;;7.47;;
1220;SDS011;600;48.044;7.878;2022-07-23T00:56:51;9.13;;;8.07;;
1220;SDS011;600;48.044;7.878;2022-07-23T00:59:18;8.90;;;8.30;;
1220;SDS011;600;48.044;7.878;2022-07-23T01:01:45;8.20;;;7.60;;
1220;SDS011;600;48.044;7.878;2022-07-23T01:04:13;8.90;;;8.10;;
1220;SDS011;600;48.044;7.878;2022-07-23T01:06:42;8.63;;;7.70;;
1220;SDS011;600;48.044;7.878;2022-07-23T01:09:10;8.53;;;7.73;;
1220;SDS011;600;48.044;7.878;2022-07-23T01:11:37;8.37;;;7.70;;
1220;SDS011;600;48.044;7.878;2022-07-23T01:14:14;13.67;;;10.40;;
1220;SDS011;600;48.044;7.878;2022-07-23T01:16:43;9.90;;;9.10;;
1220;SDS011;600;48.044;7.878;2022-07-23T01:21:38;10.20;;;9.37;;
1220;SDS011;600;48.044;7.878;2022-07-23T01:24:07;10.50;;;9.70;;
1220;SDS011;600;48.044;7.878;2022-07-23T01:26:35;10.30;;;9.60;;
1220;SDS011;600;48.044;7.878;2022-07-23T01:29:02;11.03;;;10.03;;
1220;SDS011;600;48.044;7.878;2022-07-23T01:31:30;13.03;;;11.90;;
1220;SDS011;600;48.044;7.878;2022-07-23T01:33:57;12.27;;;11.27;;
1220;SDS011;600;48.044;7.878;2022-07-23T01:36:24;11.83;;;10.70;;
1220;SDS011;600;48.044;7.878;2022-07-23T01:38:50;11.90;;;10.80;;
1220;SDS011;600;48.044;7.878;2022-07-23T01:41:18;12.27;;;10.97;;
1220;SDS011;600;48.044;7.878;2022-07-23T01:43:46;11.77;;;10.70;;
1220;SDS011;600;48.044;7.878;2022-07-23T01:46:12;14.37;;;12.90;;
1220;SDS011;600;48.044;7.878;2022-07-23T01:48:40;13.03;;;11.83;;
1220;SDS011;600;48.044;7.878;2022-07-23T01:51:06;15.00;;;13.40;;
1220;SDS011;600;48.044;7.878;2022-07-23T01:53:33;14.23;;;12.73;;
1220;SDS011;600;48.044;7.878;2022-07-23T01:56:00;13.53;;;12.13;;
1220;SDS011;600;48.044;7.878;2022-07-23T01:58:29;13.17;;;11.87;;
1220;SDS011;600;48.044;7.878;2022-07-23T02:00:56;10.93;;;10.00;;
1220;SDS011;600;48.044;7.878;2022-07-23T02:03:23;11.30;;;10.30;;
1220;SDS011;600;48.044;7.878;2022-07-23T02:05:50;10.60;;;9.80;;
1220;SDS011;600;48.044;7.878;2022-07-23T02:08:17;11.53;;;10.40;;
1220;SDS011;600;48.044;7.878;2022-07-23T02:10:46;10.87;;;9.90;;
1220;SDS011;600;48.044;7.878;2022-07-23T02:13:13;10.93;;;10.10;;
1220;SDS011;600;48.044;7.878;2022-07-23T02:15:41;11.77;;;10.60;;
1220;SDS011;600;48.044;7.878;2022-07-23T02:18:08;12.10;;;11.00;;
1220;SDS011;600;48.044;7.878;2022-07-23T02:20:35;11.57;;;10.47;;
1220;SDS011;600;48.044;7.878;2022-07-23T02:23:03;12.87;;;11.80;;
1220;SDS011;600;48.044;7.878;2022-07-23T02:25:31;12.07;;;10.97;;
1220;SDS011;600;48.044;7.878;2022-07-23T02:27:58;12.53;;;11.60;;
1220;SDS011;600;48.044;7.878;2022-07-23T02:30:25;11.40;;;10.50;;
1220;SDS011;600;48.044;7.878;2022-07-23T02:32:53;11.77;;;10.60;;
1220;SDS011;600;48.044;7.878;2022-07-23T02:35:20;11.37;;;10.37;;
1220;SDS011;600;48.044;7.878;2022-07-23T02:37:46;11.40;;;10.50;;
1220;SDS011;600;48.044;7.878;2022-07-23T02:40:13;12.07;;;11.07;;
1220;SDS011;600;48.044;7.878;2022-07-23T02:42:40;10.57;;;9.77;;
1220;SDS011;600;48.044;7.878;2022-07-23T02:45:07;12.80;;;11.60;;
1220;SDS011;600;48.044;7.878;2022-07-23T02:47:34;12.20;;;11.20;;
1220;SDS011;600;48.044;7.878;2022-07-23T02:50:03;11.00;;;10.20;;
1220;SDS011;600;48.044;7.878;2022-07-23T02:52:30;11.70;;;10.80;;
1220;SDS011;600;48.044;7.878;2022-07-23T02:54:57;12.43;;;11.37;;
1220;SDS011;600;48.044;7.878;2022-07-23T02:57:23;12.13;;;11.23;;
1220;SDS011;600;48.044;7.878;2022-07-23T02:59:50;11.00;;;10.10;;
1220;SDS011;600;48.044;7.878;2022-07-23T03:02:17;11.50;;;10.70;;
1220;SDS011;600;48.044;7.878;2022-07-23T03:04:44;11.80;;;10.97;;
1220;SDS011;600;48.044;7.878;2022-07-23T03:07:12;11.03;;;10.10;;
1220;SDS011;600;48.044;7.878;2022-07-23T03:09:38;12.37;;;11.47;;
1220;SDS011;600;48.044;7.878;2022-07-23T03:12:05;12.07;;;10.97;;
1220;SDS011;600;48.044;7.878;2022-07-23T03:14:33;11.80;;;10.90;;
1220;SDS011;600;48.044;7.878;2022-07-23T03:16:59;10.67;;;9.80;;
1220;SDS011;600;48.044;7.878;2022-07-23T03:19:26;13.10;;;12.03;;
1220;SDS011;600;48.044;7.878;2022-07-23T03:21:53;13.33;;;12.33;;
1220;SDS011;600;48.044;7.878;2022-07-23T03:24:21;12.47;;;11.47;;
1220;SDS011;600;48.044;7.878;2022-07-23T03:26:48;14.13;;;12.97;;
1220;SDS011;600;48.044;7.878;2022-07-23T03:29:15;13.57;;;12.47;;
1220;SDS011;600;48.044;7.878;2022-07-23T03:31:42;14.23;;;13.10;;
1220;SDS011;600;48.044;7.878;2022-07-23T03:34:09;14.23;;;13.00;;
1220;SDS011;600;48.044;7.878;2022-07-23T03:36:35;14.07;;;12.80;;
1220;SDS011;600;48.044;7.878;2022-07-23T03:39:02;13.10;;;12.10;;
1220;SDS011;600;48.044;7.878;2022-07-23T03:41:31;13.60;;;12.60;;
1220;SDS011;600;48.044;7.878;2022-07-23T03:43:57;14.10;;;12.90;;
1220;SDS011;600;48.044;7.878;2022-07-23T03:46:24;13.63;;;12.53;;
1220;SDS011;600;48.044;7.878;2022-07-23T03:48:51;14.53;;;13.43;;
1220;SDS011;600;48.044;7.878;2022-07-23T03:51:17;16.67;;;12.83;;
1220;SDS011;600;48.044;7.878;2022-07-23T03:53:45;13.87;;;12.77;;
1220;SDS011;600;48.044;7.878;2022-07-23T03:56:14;13.30;;;12.20;;
1220;SDS011;600;48.044;7.878;2022-07-23T03:58:42;11.63;;;10.73;;
1220;SDS011;600;48.044;7.878;2022-07-23T04:01:08;11.70;;;10.90;;
1220;SDS011;600;48.044;7.878;2022-07-23T04:03:36;12.60;;;11.60;;
1220;SDS011;600;48.044;7.878;2022-07-23T04:06:03;13.10;;;12.10;;
1220;SDS011;600;48.044;7.878;2022-07-23T04:08:31;14.00;;;12.90;;
1220;SDS011;600;48.044;7.878;2022-07-23T04:10:57;15.23;;;13.90;;
1220;SDS011;600;48.044;7.878;2022-07-23T04:13:24;14.00;;;12.80;;
1220;SDS011;600;48.044;7.878;2022-07-23T04:15:52;13.73;;;12.63;;
1220;SDS011;600;48.044;7.878;2022-07-23T04:18:19;13.90;;;12.80;;
1220;SDS011;600;48.044;7.878;2022-07-23T04:20:47;11.73;;;10.83;;
1220;SDS011;600;48.044;7.878;2022-07-23T04:23:14;12.40;;;11.50;;
1220;SDS011;600;48.044;7.878;2022-07-23T04:25:40;12.97;;;11.97;;
1220;SDS011;600;48.044;7.878;2022-07-23T04:28:07;13.97;;;12.77;;
1220;SDS011;600;48.044;7.878;2022-07-23T04:30:34;13.27;;;12.27;;
1220;SDS011;600;48.044;7.878;2022-07-23T04:33:02;12.57;;;11.57;;
1220;SDS011;600;48.044;7.878;2022-07-23T04:35:31;14.30;;;13.10;;
1220;SDS011;600;48.044;7.878;2022-07-23T04:37:58;12.60;;;11.60;;
1220;SDS011;600;48.044;7.878;2022-07-23T04:40:25;13.87;;;12.87;;
1220;SDS011;600;48.044;7.878;2022-07-23T04:42:52;14.83;;;13.63;;
1220;SDS011;600;48.044;7.878;2022-07-23T04:45:19;13.40;;;12.30;;
1220;SDS011;600;48.044;7.878;2022-07-23T04:47:45;13.50;;;12.40;;
1220;SDS011;600;48.044;7.878;2022-07-23T04:50:13;12.37;;;11.27;;
1220;SDS011;600;48.044;7.878;2022-07-23T04:52:43;12.20;;;11.20;;
1220;SDS011;600;48.044;7.878;2022-07-23T04:55:10;12.87;;;11.77;;
1220;SDS011;600;48.044;7.878;2022-07-23T04:57:37;14.23;;;13.13;;
1220;SDS011;600;48.044;7.878;2022-07-23T05:00:04;14.07;;;12.97;;
1220;SDS011;600;48.044;7.878;2022-07-23T05:02:31;12.80;;;11.80;;
1220;SDS011;600;48.044;7.878;2022-07-23T05:04:58;13.00;;;12.00;;
1220;SDS011;600;48.044;7.878;2022-07-23T05:07:26;14.47;;;13.20;;
1220;SDS011;600;48.044;7.878;2022-07-23T05:09:53;13.47;;;12.37;;
1220;SDS011;600;48.044;7.878;2022-07-23T05:12:20;13.10;;;12.03;;
1220;SDS011;600;48.044;7.878;2022-07-23T05:14:46;12.30;;;11.30;;
1220;SDS011;600;48.044;7.878;2022-07-23T05:17:13;13.47;;;12.40;;
1220;SDS011;600;48.044;7.878;2022-07-23T05:19:40;14.83;;;12.07;;
1220;SDS011;600;48.044;7.878;2022-07-23T05:22:07;13.17;;;12.17;;
1220;SDS011;600;48.044;7.878;2022-07-23T05:24:35;12.90;;;12.00;;
1220;SDS011;600;48.044;7.878;2022-07-23T05:27:01;14.17;;;13.03;;
1220;SDS011;600;48.044;7.878;2022-07-23T05:29:28;13.43;;;12.30;;
1220;SDS011;600;48.044;7.878;2022-07-23T05:31:55;15.53;;;14.10;;
1220;SDS011;600;48.044;7.878;2022-07-23T05:34:21;13.70;;;12.27;;
1220;SDS011;600;48.044;7.878;2022-07-23T05:36:48;14.47;;;13.03;;
1220;SDS011;600;48.044;7.878;2022-07-23T05:39:15;13.93;;;12.73;;
1220;SDS011;600;48.044;7.878;2022-07-23T05:41:43;13.23;;;12.23;;
1220;SDS011;600;48.044;7.878;2022-07-23T05:44:10;13.10;;;12.07;;
1220;SDS011;600;48.044;7.878;2022-07-23T05:46:36;12.70;;;11.60;;
1220;SDS011;600;48.044;7.878;2022-07-23T05:49:03;12.53;;;11.43;;
1220;SDS011;600;48.044;7.878;2022-07-23T05:51:30;13.97;;;12.87;;
1220;SDS011;600;48.044;7.878;2022-07-23T05:53:57;13.57;;;12.57;;
1220;SDS011;600;48.044;7.878;2022-07-23T05:56:23;13.27;;;12.07;;
1220;SDS011;600;48.044;7.878;2022-07-23T05:58:51;13.03;;;12.03;;
1220;SDS011;600;48.044;7.878;2022-07-23T06:01:18;13.30;;;12.30;;
1220;SDS011;600;48.044;7.878;2022-07-23T06:03:45;14.73;;;13.43;;
1220;SDS011;600;48.044;7.878;2022-07-23T06:06:11;12.70;;;11.70;;
1220;SDS011;600;48.044;7.878;2022-07-23T06:08:38;13.43;;;12.33;;
1220;SDS011;600;48.044;7.878;2022-07-23T06:11:05;13.80;;;12.70;;
1220;SDS011;600;48.044;7.878;2022-07-23T06:13:32;13.07;;;12.00;;
1220;SDS011;600;48.044;7.878;2022-07-23T06:16:00;13.23;;;12.17;;
1220;SDS011;600;48.044;7.878;2022-07-23T06:18:26;13.20;;;12.20;;
1220;SDS011;600;48.044;7.878;2022-07-23T06:20:53;14.23;;;12.90;;
1220;SDS011;600;48.044;7.878;2022-07-23T06:23:20;13.23;;;12.13;;
1220;SDS011;600;48.044;7.878;2022-07-23T06:25:47;15.30;;;14.10;;
1220;SDS011;600;48.044;7.878;2022-07-23T06:28:13;14.47;;;13.17;;
1220;SDS011;600;48.044;7.878;2022-07-23T06:30:40;14.00;;;13.00;;
1220;SDS011;600;48.044;7.878;2022-07-23T06:33:08;14.07;;;12.97;;
1220;SDS011;600;48.044;7.878;2022-07-23T06:35:36;13.80;;;12.60;;
1220;SDS011;600;48.044;7.878;2022-07-23T06:38:03;15.00;;;13.80;;
1220;SDS011;600;48.044;7.878;2022-07-23T06:40:30;14.40;;;13.07;;
1220;SDS011;600;48.044;7.878;2022-07-23T06:42:56;14.70;;;13.43;;
1220;SDS011;600;48.044;7.878;2022-07-23T06:45:23;13.47;;;12.47;;
1220;SDS011;600;48.044;7.878;2022-07-23T06:47:50;11.60;;;10.60;;
1220;SDS011;600;48.044;7.878;2022-07-23T06:50:18;12.13;;;11.13;;
1220;SDS011;600;48.044;7.878;2022-07-23T06:52:45;13.13;;;12.13;;
1220;SDS011;600;48.044;7.878;2022-07-23T06:55:11;13.63;;;12.30;;
1220;SDS011;600;48.044;7.878;2022-07-23T06:57:38;11.90;;;11.00;;
1220;SDS011;600;48.044;7.878;2022-07-23T07:00:05;12.40;;;11.30;;
1220;SDS011;600;48.044;7.878;2022-07-23T07:02:33;12.30;;;11.20;;
1220;SDS011;600;48.044;7.878;2022-07-23T07:04:59;11.67;;;10.63;;
1220;SDS011;600;48.044;7.878;2022-07-23T07:07:27;12.63;;;11.73;;
1220;SDS011;600;48.044;7.878;2022-07-23T10:01:12;9.37;;;8.60;;
1220;SDS011;600;48.044;7.878;2022-07-23T10:03:40;8.90;;;8.30;;
1220;SDS011;600;48.044;7.878;2022-07-23T10:06:07;10.50;;;9.47;;
1220;SDS011;600;48.044;7.878;2022-07-23T10:08:36;9.90;;;8.90;;
1220;SDS011;600;48.044;7.878;2022-07-23T10:11:06;10.17;;;9.27;;
1220;SDS011;600;48.044;7.878;2022-07-23T10:13:35;10.13;;;9.33;;
1220;SDS011;600;48.044;7.878;2022-07-23T10:16:18;9.67;;;8.97;;
1220;SDS011;600;48.044;7.878;2022-07-23T10:18:44;9.90;;;9.10;;
1220;SDS011;600;48.044;7.878;2022-07-23T10:21:11;9.00;;;8.30;;
1220;SDS011;600;48.044;7.878;2022-07-23T11:57:52;8.37;;;7.67;;
1220;SDS011;600;48.044;7.878;2022-07-23T12:00:20;9.50;;;8.60;;
1220;SDS011;600;48.044;7.878;2022-07-23T12:02:48;8.53;;;7.93;;
1220;SDS011;600;48.044;7.878;2022-07-23T12:05:17;8.07;;;7.30;;
1220;SDS011;600;48.044;7.878;2022-07-23T12:07:45;8.90;;;8.30;;
1220;SDS011;600;48.044;7.878;2022-07-23T12:10:15;9.37;;;8.67;;
1220;SDS011;600;48.044;7.878;2022-07-23T12:12:44;7.97;;;7.37;;
1220;SDS011;600;48.044;7.878;2022-07-23T12:15:16;8.70;;;8.10;;
1220;SDS011;600;48.044;7.878;2022-07-23T12:17:45;8.97;;;8.17;;
1220;SDS011;600;48.044;7.878;2022-07-23T12:20:14;8.17;;;7.57;;
1220;SDS011;600;48.044;7.878;2022-07-23T12:22:42;8.77;;;8.07;;
1220;SDS011;600;48.044;7.878;2022-07-23T12:25:11;8.70;;;8.10;;
1220;SDS011;600;48.044;7.878;2022-07-23T12:27:39;9.73;;;8.40;;
1220;SDS011;600;48.044;7.878;2022-07-23T12:30:20;8.60;;;8.00;;
1220;SDS011;600;48.044;7.878;2022-07-23T12:32:50;8.80;;;8.10;;
1220;SDS011;600;48.044;7.878;2022-07-23T12:35:18;8.63;;;7.93;;
1220;SDS011;600;48.044;7.878;2022-07-23T12:37:46;8.77;;;7.97;;
1220;SDS011;600;48.044;7.878;2022-07-23T12:40:18;9.20;;;8.50;;
1220;SDS011;600;48.044;7.878;2022-07-23T12:42:51;9.60;;;8.70;;
1220;SDS011;600;48.044;7.878;2022-07-23T12:45:21;8.63;;;8.03;;
1220;SDS011;600;48.044;7.878;2022-07-23T12:47:52;8.47;;;7.73;;
1220;SDS011;600;48.044;7.878;2022-07-23T12:50:31;8.80;;;8.10;;
1220;SDS011;600;48.044;7.878;2022-07-23T12:53:05;8.87;;;8.23;;
1220;SDS011;600;48.044;7.878;2022-07-23T12:55:34;8.67;;;8.07;;
1220;SDS011;600;48.044;7.878;2022-07-23T12:58:09;8.37;;;7.67;;
1220;SDS011;600;48.044;7.878;2022-07-23T13:00:58;9.00;;;8.30;;
1220;SDS011;600;48.044;7.878;2022-07-23T13:10:52;8.70;;;8.10;;
1220;SDS011;600;48.044;7.878;2022-07-23T13:13:20;8.90;;;8.27;;
1220;SDS011;600;48.044;7.878;2022-07-23T13:15:48;7.73;;;7.13;;
1220;SDS011;600;48.044;7.878;2022-07-23T13:18:16;8.17;;;7.57;;
1220;SDS011;600;48.044;7.878;2022-07-23T13:20:43;8.80;;;8.07;;
1220;SDS011;600;48.044;7.878;2022-07-23T13:23:11;8.10;;;7.50;;
1220;SDS011;600;48.044;7.878;2022-07-23T13:25:37;8.20;;;7.60;;
1220;SDS011;600;48.044;7.878;2022-07-23T13:28:04;8.47;;;7.80;;
1220;SDS011;600;48.044;7.878;2022-07-23T13:30:31;8.70;;;8.00;;
1220;SDS011;600;48.044;7.878;2022-07-23T13:32:58;7.90;;;7.40;;
1220;SDS011;600;48.044;7.878;2022-07-23T13:35:26;8.40;;;7.90;;
1220;SDS011;600;48.044;7.878;2022-07-23T13:37:53;8.80;;;8.10;;
1220;SDS011;600;48.044;7.878;2022-07-23T13:40:20;8.07;;;7.47;;
1220;SDS011;600;48.044;7.878;2022-07-23T13:42:47;8.40;;;7.80;;
1220;SDS011;600;48.044;7.878;2022-07-23T13:45:14;9.00;;;8.30;;
1220;SDS011;600;48.044;7.878;2022-07-23T13:47:41;8.10;;;7.60;;
1220;SDS011;600;48.044;7.878;2022-07-23T13:50:08;9.13;;;8.33;;
1220;SDS011;600;48.044;7.878;2022-07-23T13:52:36;8.20;;;7.60;;
1220;SDS011;600;48.044;7.878;2022-07-23T13:55:04;7.80;;;7.20;;
1220;SDS011;600;48.044;7.878;2022-07-23T13:57:32;7.87;;;7.37;;
1220;SDS011;600;48.044;7.878;2022-07-23T13:59:59;7.77;;;7.27;;
1220;SDS011;600;48.044;7.878;2022-07-23T14:02:27;9.00;;;8.17;;
1220;SDS011;600;48.044;7.878;2022-07-23T14:04:53;8.33;;;7.70;;
1220;SDS011;600;48.044;7.878;2022-07-23T14:07:22;8.73;;;8.13;;
1220;SDS011;600;48.044;7.878;2022-07-23T14:09:50;8.80;;;8.20;;
1220;SDS011;600;48.044;7.878;2022-07-23T14:12:17;8.50;;;7.90;;
1220;SDS011;600;48.044;7.878;2022-07-23T14:14:44;8.13;;;7.53;;
1220;SDS011;600;48.044;7.878;2022-07-23T14:17:11;10.03;;;9.07;;
1220;SDS011;600;48.044;7.878;2022-07-23T14:19:37;8.33;;;7.70;;
1220;SDS011;600;48.044;7.878;2022-07-23T14:22:05;9.10;;;8.40;;
1220;SDS011;600;48.044;7.878;2022-07-23T14:24:32;9.60;;;8.70;;
1220;SDS011;600;48.044;7.878;2022-07-23T14:27:00;8.97;;;8.37;;
1220;SDS011;600;48.044;7.878;2022-07-23T14:29:27;8.80;;;8.10;;
1220;SDS011;600;48.044;7.878;2022-07-23T14:31:54;8.53;;;8.00;;
1220;SDS011;600;48.044;7.878;2022-07-23T14:34:21;8.40;;;7.90;;
1220;SDS011;600;48.044;7.878;2022-07-23T14:36:48;9.17;;;8.40;;
1220;SDS011;600;48.044;7.878;2022-07-23T14:39:15;9.10;;;8.40;;
1220;SDS011;600;48.044;7.878;2022-07-23T14:41:42;8.00;;;7.40;;
1220;SDS011;600;48.044;7.878;2022-07-23T14:44:10;8.73;;;7.97;;
1220;SDS011;600;48.044;7.878;2022-07-23T14:46:40;9.50;;;8.80;;
1220;SDS011;600;48.044;7.878;2022-07-23T14:49:07;8.80;;;8.20;;
1220;SDS011;600;48.044;7.878;2022-07-23T14:54:55;9.47;;;7.93;;
1220;SDS011;600;48.044;7.878;2022-07-23T14:57:22;8.10;;;7.30;;
1220;SDS011;600;48.044;7.878;2022-07-23T14:59:50;7.00;;;6.40;;
1220;SDS011;600;48.044;7.878;2022-07-23T15:02:17;6.57;;;5.97;;
1220;SDS011;600;48.044;7.878;2022-07-23T15:04:44;6.97;;;6.37;;
1220;SDS011;600;48.044;7.878;2022-07-23T15:07:11;9.10;;;8.37;;
1220;SDS011;600;48.044;7.878;2022-07-23T15:09:38;9.10;;;8.40;;
1220;SDS011;600;48.044;7.878;2022-07-23T15:12:04;8.63;;;8.00;;
1220;SDS011;600;48.044;7.878;2022-07-23T15:14:31;9.87;;;9.17;;
1220;SDS011;600;48.044;7.878;2022-07-23T15:16:59;8.00;;;7.40;;
1220;SDS011;600;48.044;7.878;2022-07-23T15:19:26;8.30;;;7.60;;
1220;SDS011;600;48.044;7.878;2022-07-23T15:21:53;9.20;;;8.40;;
1220;SDS011;600;48.044;7.878;2022-07-23T15:24:20;9.97;;;9.17;;
1220;SDS011;600;48.044;7.878;2022-07-23T15:26:46;10.00;;;9.20;;
1220;SDS011;600;48.044;7.878;2022-07-23T15:29:13;9.17;;;8.47;;
1220;SDS011;600;48.044;7.878;2022-07-23T15:31:40;9.30;;;8.63;;
1220;SDS011;600;48.044;7.878;2022-07-23T15:34:08;9.00;;;8.40;;
1220;SDS011;600;48.044;7.878;2022-07-23T15:36:35;9.60;;;8.73;;
1220;SDS011;600;48.044;7.878;2022-07-23T15:39:02;9.67;;;9.07;;
1220;SDS011;600;48.044;7.878;2022-07-23T15:41:30;9.70;;;8.90;;
1220;SDS011;600;48.044;7.878;2022-07-23T15:43:57;9.63;;;8.83;;
1220;SDS011;600;48.044;7.878;2022-07-23T15:46:24;9.67;;;8.83;;
1220;SDS011;600;48.044;7.878;2022-07-23T15:48:51;7.70;;;7.20;;
1220;SDS011;600;48.044;7.878;2022-07-23T15:51:19;8.63;;;8.03;;
1220;SDS011;600;48.044;7.878;2022-07-23T15:53:46;8.13;;;7.43;;
1220;SDS011;600;48.044;7.878;2022-07-23T15:56:12;8.67;;;8.00;;
1220;SDS011;600;48.044;7.878;2022-07-23T15:58:39;9.20;;;8.50;;
1220;SDS011;600;48.044;7.878;2022-07-23T16:01:06;8.00;;;7.40;;
1220;SDS011;600;48.044;7.878;2022-07-23T16:03:33;8.13;;;7.63;;
1220;SDS011;600;48.044;7.878;2022-07-23T16:06:00;7.70;;;7.10;;
1220;SDS011;600;48.044;7.878;2022-07-23T16:08:28;8.97;;;8.17;;
1220;SDS011;600;48.044;7.878;2022-07-23T16:10:55;8.23;;;7.70;;
1220;SDS011;600;48.044;7.878;2022-07-23T16:13:23;7.80;;;7.20;;
1220;SDS011;600;48.044;7.878;2022-07-23T16:15:50;8.83;;;8.03;;
1220;SDS011;600;48.044;7.878;2022-07-23T16:18:18;8.77;;;8.07;;
1220;SDS011;600;48.044;7.878;2022-07-23T16:20:47;7.73;;;7.03;;
1220;SDS011;600;48.044;7.878;2022-07-23T16:23:14;7.93;;;7.33;;
1220;SDS011;600;48.044;7.878;2022-07-23T16:25:42;7.47;;;6.77;;
1220;SDS011;600;48.044;7.878;2022-07-23T16:28:09;8.23;;;7.73;;
1220;SDS011;600;48.044;7.878;2022-07-23T16:30:36;8.70;;;8.10;;
1220;SDS011;600;48.044;7.878;2022-07-23T16:33:04;8.30;;;7.60;;
1220;SDS011;600;48.044;7.878;2022-07-23T16:35:31;7.60;;;7.10;;
1220;SDS011;600;48.044;7.878;2022-07-23T16:37:58;7.53;;;7.03;;
1220;SDS011;600;48.044;7.878;2022-07-23T16:40:27;8.03;;;7.53;;
1220;SDS011;600;48.044;7.878;2022-07-23T16:42:55;7.47;;;6.97;;
1220;SDS011;600;48.044;7.878;2022-07-23T16:45:22;7.73;;;7.13;;
1220;SDS011;600;48.044;7.878;2022-07-23T16:47:49;7.90;;;7.30;;
1220;SDS011;600;48.044;7.878;2022-07-23T16:50:16;7.80;;;7.20;;
1220;SDS011;600;48.044;7.878;2022-07-23T16:52:42;8.07;;;7.50;;
1220;SDS011;600;48.044;7.878;2022-07-23T16:55:09;7.83;;;7.23;;
1220;SDS011;600;48.044;7.878;2022-07-23T16:57:36;8.27;;;7.57;;
1220;SDS011;600;48.044;7.878;2022-07-23T17:00:05;8.00;;;7.40;;
1220;SDS011;600;48.044;7.878;2022-07-23T17:02:33;8.57;;;7.77;;
1220;SDS011;600;48.044;7.878;2022-07-23T17:05:00;8.70;;;7.90;;
1220;SDS011;600;48.044;7.878;2022-07-23T17:07:27;8.37;;;7.77;;
1220;SDS011;600;48.044;7.878;2022-07-23T17:09:54;8.50;;;7.87;;
1220;SDS011;600;48.044;7.878;2022-07-23T17:12:20;7.80;;;7.30;;
1220;SDS011;600;48.044;7.878;2022-07-23T17:14:47;8.10;;;7.50;;
1220;SDS011;600;48.044;7.878;2022-07-23T17:17:15;8.60;;;7.87;;
1220;SDS011;600;48.044;7.878;2022-07-23T17:19:42;8.10;;;7.60;;
1220;SDS011;600;48.044;7.878;2022-07-23T17:22:09;8.83;;;8.23;;
1220;SDS011;600;48.044;7.878;2022-07-23T17:24:36;7.87;;;7.30;;
1220;SDS011;600;48.044;7.878;2022-07-23T17:27:03;8.00;;;7.50;;
1220;SDS011;600;48.044;7.878;2022-07-23T17:29:30;8.40;;;7.90;;
1220;SDS011;600;48.044;7.878;2022-07-23T17:31:57;8.20;;;7.60;;
1220;SDS011;600;48.044;7.878;2022-07-23T17:34:25;9.30;;;8.60;;
1220;SDS011;600;48.044;7.878;2022-07-23T17:36:52;9.50;;;8.70;;
1220;SDS011;600;48.044;7.878;2022-07-23T17:39:19;8.40;;;7.80;;
1220;SDS011;600;48.044;7.878;2022-07-23T17:41:46;8.90;;;8.03;;
1220;SDS011;600;48.044;7.878;2022-07-23T17:44:14;8.67;;;8.07;;
1220;SDS011;600;48.044;7.878;2022-07-23T17:46:42;9.53;;;8.70;;
1220;SDS011;600;48.044;7.878;2022-07-23T17:49:10;8.07;;;7.47;;
1220;SDS011;600;48.044;7.878;2022-07-23T17:51:38;8.90;;;8.20;;
1220;SDS011;600;48.044;7.878;2022-07-23T17:54:05;8.63;;;8.03;;
1220;SDS011;600;48.044;7.878;2022-07-23T17:56:32;8.70;;;8.10;;
1220;SDS011;600;48.044;7.878;2022-07-23T17:58:58;8.83;;;8.13;;
1220;SDS011;600;48.044;7.878;2022-07-23T18:01:25;8.47;;;7.87;;
1220;SDS011;600;48.044;7.878;2022-07-23T18:03:53;8.50;;;7.90;;
1220;SDS011;600;48.044;7.878;2022-07-23T18:06:20;9.07;;;8.40;;
1220;SDS011;600;48.044;7.878;2022-07-23T18:08:50;8.60;;;8.10;;
1220;SDS011;600;48.044;7.878;2022-07-23T18:11:17;8.67;;;8.07;;
1220;SDS011;600;48.044;7.878;2022-07-23T18:13:44;10.03;;;9.13;;
1220;SDS011;600;48.044;7.878;2022-07-23T18:16:11;9.33;;;8.50;;
1220;SDS011;600;48.044;7.878;2022-07-23T18:18:38;8.40;;;7.90;;
1220;SDS011;600;48.044;7.878;2022-07-23T18:21:06;8.53;;;7.70;;
1220;SDS011;600;48.044;7.878;2022-07-23T18:23:33;8.63;;;7.93;;
1220;SDS011;600;48.044;7.878;2022-07-23T18:26:01;9.47;;;8.67;;
1220;SDS011;600;48.044;7.878;2022-07-23T18:28:28;8.23;;;7.63;;
1220;SDS011;600;48.044;7.878;2022-07-23T18:30:54;9.50;;;8.80;;
1220;SDS011;600;48.044;7.878;2022-07-23T18:33:22;7.90;;;7.30;;
1220;SDS011;600;48.044;7.878;2022-07-23T18:35:49;9.17;;;8.47;;
1220;SDS011;600;48.044;7.878;2022-07-23T18:38:16;9.27;;;8.27;;
1220;SDS011;600;48.044;7.878;2022-07-23T18:40:42;8.87;;;8.27;;
1220;SDS011;600;48.044;7.878;2022-07-23T18:46:32;9.03;;;8.20;;
1220;SDS011;600;48.044;7.878;2022-07-23T18:48:59;8.20;;;7.60;;
1220;SDS011;600;48.044;7.878;2022-07-23T18:51:26;8.50;;;7.83;;
1220;SDS011;600;48.044;7.878;2022-07-23T18:53:52;7.43;;;6.93;;
1220;SDS011;600;48.044;7.878;2022-07-23T18:56:19;8.47;;;7.80;;
1220;SDS011;600;48.044;7.878;2022-07-23T18:58:46;8.87;;;8.27;;
1220;SDS011;600;48.044;7.878;2022-07-23T19:01:13;8.37;;;7.67;;
1220;SDS011;600;48.044;7.878;2022-07-23T19:07:03;8.37;;;7.77;;
1220;SDS011;600;48.044;7.878;2022-07-23T19:13:05;8.80;;;8.10;;
1220;SDS011;600;48.044;7.878;2022-07-23T19:15:32;8.73;;;8.00;;
1220;SDS011;600;48.044;7.878;2022-07-23T19:24:24;8.20;;;7.60;;
1220;SDS011;600;48.044;7.878;2022-07-23T19:26:51;7.67;;;7.03;;
1220;SDS011;600;48.044;7.878;2022-07-23T19:29:17;8.20;;;7.60;;
1220;SDS011;600;48.044;7.878;2022-07-23T19:31:44;7.67;;;7.07;;
1220;SDS011;600;48.044;7.878;2022-07-23T19:34:11;8.33;;;7.63;;
1220;SDS011;600;48.044;7.878;2022-07-23T19:36:37;7.70;;;7.03;;
1220;SDS011;600;48.044;7.878;2022-07-23T19:39:04;7.57;;;6.97;;
1220;SDS011;600;48.044;7.878;2022-07-23T19:41:32;8.40;;;7.80;;
1220;SDS011;600;48.044;7.878;2022-07-23T19:47:30;9.53;;;8.83;;
1220;SDS011;600;48.044;7.878;2022-07-23T20:26:45;9.07;;;8.40;;
1220;SDS011;600;48.044;7.878;2022-07-23T20:29:13;8.33;;;7.60;;
1220;SDS011;600;48.044;7.878;2022-07-23T20:31:43;9.03;;;8.33;;
1220;SDS011;600;48.044;7.878;2022-07-23T20:34:10;8.20;;;7.60;;
1220;SDS011;600;48.044;7.878;2022-07-23T20:36:37;8.57;;;7.97;;
1220;SDS011;600;48.044;7.878;2022-07-23T20:39:05;7.90;;;7.30;;
1220;SDS011;600;48.044;7.878;2022-07-23T20:41:33;8.20;;;7.60;;
1220;SDS011;600;48.044;7.878;2022-07-23T20:44:00;8.53;;;7.93;;
1220;SDS011;600;48.044;7.878;2022-07-23T20:46:28;8.60;;;7.90;;
1220;SDS011;600;48.044;7.878;2022-07-23T20:48:57;7.93;;;7.33;;
1220;SDS011;600;48.044;7.878;2022-07-23T20:51:24;8.90;;;8.20;;
1220;SDS011;600;48.044;7.878;2022-07-23T20:53:51;8.77;;;8.10;;
1220;SDS011;600;48.044;7.878;2022-07-23T20:56:18;8.70;;;8.07;;